Kake, AK (99830)

10:16 AM AKDT on July 31, 2014 (GMT -0800)
Kake (PAFE) Elev 171 ft | 56.96 °N, 133.91 °W | Change Station

Current weather conditions updated 20 minutes ago

Overcast
Overcast
52 °F
Feels Like 52 °F
N
4
Wind Variable Wind from SW

Today is forecast to be nearly the same temperature as yesterday.

Today
High -- | Low -- °F
--% Chance of Precip.
Yesterday
High -- | Low -- °F
Precip. -- in
4:53 AM 9:09 PM
Waxing Crescent, 20% visible
Pressure 30.33 in
Visibility 2.0 miles
Clouds Overcast 200 ft
Dew Point 50 °F
Humidity 94%
Rainfall 0.00 in
Snow Depth Not available.
UV 1 out of 12
Pollen Not available.
Air Quality Not available.
Flu Activity Not available.
METAR PAFE 311756Z AUTO 22003KT 2SM OVC002 11/10 A3033 RMK AO1 10120 20070 54000

More Conditions Fewer Conditions

Pressure 30.33 in
Visibility 2.0 miles
Clouds Overcast 200 ft
Dew Point 50 °F
Humidity 94%
Rainfall 0.00 in
Snow Depth Not available.
UV 1 out of 12
Pollen Not available.
Air Quality Not available.
Flu Activity Not available.
METAR PAFE 311756Z AUTO 22003KT 2SM OVC002 11/10 A3033 RMK AO1 10120 20070 54000

More Conditions Fewer Conditions

10-Day Weather Forecast

Almanac

Astronomy

Jul. 31, 2014 Rise Set
Actual Time 4:53 AM AKDT 9:09 PM AKDT
Civil Twilight 4:01 AM AKDT 10:00 PM AKDT
Nautical Twilight 2:41 AM AKDT 11:19 PM AKDT
Astronomical Twilight Sun does not rise 12:29 AM AKDT
Moon 10:33 AM AKDT 10:15 PM AKDT
Length of Visible Light 17h 58m
Length of Day
16h 16m
Tomorrow will be 4m 4s shorter.
Waxing Crescent, 20% of the Moon is Illuminated
Today
Waxing Crescent
Aug 3
First Quarter
Aug 10
Full
Aug 17
Last Quarter
Aug 25
New

Today's Extremes

State Highs State Lows

Community

WunderPhotos

Upload Photos

1,739,406 photos uploaded!

Nearby

Snow Depth

Station Depth Elevation
Upper Tsaina River 0 in 1750 ft
Moraine 0 in 2100 ft
Grandview 3 in 1100 ft
Grouse Creek Divide 0 in 700 ft
Turnagain Pass 0 in 1880 ft

Earthquake Activity

City Distance Mag. Time & Date
No recent earthquake activity has been reported nearby.
Minimum magnitude displayed is 2.5.

Coastal Water Temperatures

Place Temperature
No Stations Reporting

Nearby Weather Stations

Station Location Temp. Dew Point Humidity Wind Precip. Elev Updated Type
RAWS KAKE AK, Kake, AK 52 °F 52 °F 100% NNE  at  4 mph 0.00 in / hr 399 ft 8:55 AM AKDT MADIS
MARITIME , Kake, AK 51 °F - - NNE  at  11 mph 0.00 in / hr 22 ft 9:00 AM AKDT MADIS

Show More Stations Show Fewer Stations